createdAt,value
2019-05-29T00:00:57.026Z,75.66
2019-05-29T00:01:57.061Z,76.07
2019-05-29T00:02:56.990Z,76.48
2019-05-29T00:03:56.979Z,76.38
2019-05-29T00:04:56.971Z,76.07
2019-05-29T00:05:56.984Z,75.83
2019-05-29T00:06:56.972Z,75.83
2019-05-29T00:07:56.928Z,76.58
2019-05-29T00:08:56.928Z,76.55
2019-05-29T00:09:56.910Z,76.38
2019-05-29T00:10:56.892Z,77.10
2019-05-29T00:11:56.914Z,76.48
2019-05-29T00:12:56.925Z,77.92
2019-05-29T00:13:56.875Z,77.61
2019-05-29T00:14:56.872Z,77.40
2019-05-29T00:15:56.839Z,77.34
2019-05-29T00:16:56.852Z,77.30
2019-05-29T00:17:56.838Z,77.85
2019-05-29T00:18:58.366Z,77.85
2019-05-29T00:19:56.803Z,78.06
2019-05-29T00:20:56.780Z,78.27
2019-05-29T00:21:56.803Z,78.16
2019-05-29T00:22:56.836Z,78.27
2019-05-29T00:23:56.765Z,78.88
2019-05-29T00:24:56.737Z,78.92
2019-05-29T00:25:56.736Z,78.92
2019-05-29T00:26:56.753Z,79.53
2019-05-29T00:27:56.730Z,79.22
2019-05-29T00:28:56.715Z,78.92
2019-05-29T00:29:56.705Z,79.57
2019-05-29T00:30:56.716Z,79.12
2019-05-29T00:31:56.686Z,78.92
2019-05-29T00:32:56.686Z,78.44
2019-05-29T00:33:56.665Z,78.50
2019-05-29T00:34:56.683Z,78.92
2019-05-29T00:35:56.660Z,78.85
2019-05-29T00:36:56.616Z,79.33
2019-05-29T00:37:56.648Z,78.85
2019-05-29T00:38:56.590Z,79.02
2019-05-29T00:39:56.603Z,78.71
2019-05-29T00:40:56.562Z,79.43
2019-05-29T00:41:56.555Z,79.57
2019-05-29T00:42:56.598Z,80.08
2019-05-29T00:43:56.528Z,79.36
2019-05-29T00:44:56.521Z,79.88
2019-05-29T00:45:56.504Z,80.05
2019-05-29T00:46:56.533Z,79.74
2019-05-29T00:47:56.522Z,79.84
2019-05-29T00:48:56.483Z,79.53
2019-05-29T00:49:56.462Z,79.53
2019-05-29T00:50:56.504Z,79.22
2019-05-29T00:51:56.467Z,79.12
2019-05-29T00:52:56.480Z,79.12
2019-05-29T00:53:56.455Z,79.22
2019-05-29T00:54:56.463Z,79.98
2019-05-29T00:55:56.453Z,80.87
2019-05-29T00:56:56.510Z,80.80
2019-05-29T00:57:56.402Z,80.39
2019-05-29T00:58:56.370Z,80.60
2019-05-29T00:59:56.388Z,80.80
2019-05-29T01:00:56.361Z,80.39
2019-05-29T01:01:56.372Z,80.60
2019-05-29T01:02:56.362Z,81.62
2019-05-29T01:03:56.354Z,81.25
2019-05-29T01:04:56.308Z,81.35
2019-05-29T01:05:56.292Z,82.07
2019-05-29T01:06:56.293Z,82.07
2019-05-29T01:07:56.312Z,82.39
2019-05-29T01:08:56.263Z,82.39
2019-05-29T01:09:56.257Z,81.76
2019-05-29T01:10:56.241Z,82.07
2019-05-29T01:11:56.228Z,82.48
2019-05-29T01:12:56.259Z,82.39
2019-05-29T01:13:56.216Z,82.28
2019-05-29T01:14:56.188Z,82.42
2019-05-29T01:15:56.178Z,82.01
2019-05-29T01:16:56.170Z,82.21
2019-05-29T01:17:56.182Z,82.42
2019-05-29T01:18:56.174Z,81.81
2019-05-29T01:19:56.140Z,82.32
2019-05-29T01:20:56.129Z,82.01
2019-05-29T01:21:56.158Z,82.39
2019-05-29T01:22:56.157Z,81.49
2019-05-29T01:23:56.101Z,81.46
2019-05-29T01:24:56.104Z,81.56
2019-05-29T01:25:56.084Z,81.76
2019-05-29T01:26:56.090Z,81.25
2019-05-29T01:27:56.081Z,81.35
2019-05-29T01:28:56.039Z,80.63
2019-05-29T01:29:56.059Z,80.94
2019-05-29T01:30:56.099Z,81.15
2019-05-29T01:31:56.026Z,80.63
2019-05-29T01:32:56.040Z,80.63
2019-05-29T01:33:55.990Z,80.67
2019-05-29T01:34:55.984Z,80.84
2019-05-29T01:35:55.976Z,80.94
2019-05-29T01:36:55.966Z,80.94
2019-05-29T01:37:56.007Z,80.43
2019-05-29T01:38:55.937Z,80.12
2019-05-29T01:39:55.938Z,80.33
2019-05-29T01:40:55.917Z,80.53
2019-05-29T01:41:55.911Z,79.81
2019-05-29T01:42:55.928Z,80.05
2019-05-29T01:43:55.881Z,80.98
2019-05-29T01:45:07.322Z,80.77
2019-05-29T01:45:56.862Z,80.33
2019-05-29T01:46:55.854Z,80.67
2019-05-29T01:47:55.860Z,80.77
2019-05-29T01:48:55.844Z,80.84
2019-05-29T01:49:55.821Z,80.47
2019-05-29T01:50:55.813Z,80.57
2019-05-29T01:51:55.800Z,79.95
2019-05-29T01:52:55.802Z,79.75
2019-05-29T01:53:55.772Z,79.64
2019-05-29T01:54:55.775Z,79.64
2019-05-29T01:55:55.753Z,80.47
2019-05-29T01:56:55.745Z,79.95
2019-05-29T01:57:55.756Z,80.16
2019-05-29T01:58:55.721Z,80.36
2019-05-29T01:59:55.717Z,80.47
2019-05-29T02:00:55.710Z,80.36
2019-05-29T02:01:55.694Z,80.26
2019-05-29T02:02:55.724Z,80.26
2019-05-29T02:03:55.677Z,80.36
2019-05-29T02:04:55.657Z,79.44
2019-05-29T02:05:55.649Z,80.05
2019-05-29T02:06:55.651Z,80.09
2019-05-29T02:07:55.694Z,79.95
2019-05-29T02:08:55.615Z,80.09
2019-05-29T02:09:55.620Z,80.40
2019-05-29T02:10:55.601Z,80.05
2019-05-29T02:11:55.584Z,79.99
2019-05-29T02:12:55.603Z,80.40
2019-05-29T02:13:55.639Z,79.88
2019-05-29T02:14:55.555Z,79.99
2019-05-29T02:15:55.573Z,79.99
2019-05-29T02:16:55.530Z,79.47
2019-05-29T02:17:55.521Z,80.09
2019-05-29T02:18:55.538Z,80.61
2019-05-29T02:19:55.535Z,79.99
2019-05-29T02:20:55.523Z,80.44
2019-05-29T02:21:55.482Z,80.02
2019-05-29T02:22:55.471Z,80.33
2019-05-29T02:23:55.482Z,80.54
2019-05-29T02:24:55.445Z,80.23
2019-05-29T02:25:55.439Z,80.65
2019-05-29T02:26:55.425Z,80.54
2019-05-29T02:27:55.411Z,80.95
2019-05-29T02:28:55.432Z,80.65
2019-05-29T02:29:55.399Z,80.68
2019-05-29T02:30:55.389Z,80.65
2019-05-29T02:31:55.389Z,80.85
2019-05-29T02:32:55.379Z,80.99
2019-05-29T02:33:55.428Z,80.99
2019-05-29T02:34:55.369Z,80.95
2019-05-29T02:35:55.386Z,80.85
2019-05-29T02:36:55.388Z,80.65
2019-05-29T02:37:55.339Z,80.44
2019-05-29T02:38:55.373Z,80.95
2019-05-29T02:39:55.304Z,80.75
2019-05-29T02:40:55.310Z,80.75
2019-05-29T02:41:55.264Z,80.75
2019-05-29T02:42:55.283Z,80.85
2019-05-29T02:43:55.323Z,80.95
2019-05-29T02:44:55.278Z,81.05
2019-05-29T02:45:55.450Z,80.99
2019-05-29T02:46:55.270Z,81.92
2019-05-29T02:47:55.260Z,81.85
2019-05-29T02:48:55.259Z,82.06
2019-05-29T02:49:55.218Z,82.57
2019-05-29T02:50:55.172Z,82.57
2019-05-29T02:51:55.157Z,82.37
2019-05-29T02:52:55.149Z,82.98
2019-05-29T02:53:55.164Z,82.98
2019-05-29T02:54:55.140Z,83.09
2019-05-29T02:55:55.120Z,83.03
2019-05-29T02:56:55.129Z,83.19
2019-05-29T02:57:55.102Z,83.03
2019-05-29T02:58:55.132Z,82.98
2019-05-29T02:59:55.099Z,82.78
2019-05-29T03:02:17.820Z,82.16
2019-05-29T03:03:17.793Z,82.16
2019-05-29T03:04:17.796Z,81.96
2019-05-29T03:05:17.785Z,80.82
2019-05-29T03:06:17.777Z,80.93
2019-05-29T03:07:17.740Z,81.65
2019-05-29T03:08:17.740Z,81.58
2019-05-29T03:09:17.737Z,82.16
2019-05-29T03:10:17.737Z,82.26
2019-05-29T03:11:17.741Z,81.44
2019-05-29T03:12:17.715Z,81.23
2019-05-29T03:13:17.700Z,81.54
2019-05-29T03:14:17.715Z,81.65
2019-05-29T03:15:17.655Z,81.65
2019-05-29T03:16:17.646Z,81.68
2019-05-29T03:17:17.635Z,81.44
2019-05-29T03:18:17.623Z,81.44
2019-05-29T03:19:17.658Z,81.65
2019-05-29T03:20:17.613Z,81.44
2019-05-29T03:21:17.603Z,82.26
2019-05-29T03:22:17.592Z,81.65
2019-05-29T03:23:17.570Z,81.44
2019-05-29T03:24:17.622Z,80.93
2019-05-29T03:25:17.553Z,81.51
2019-05-29T03:26:17.533Z,81.44
2019-05-29T03:27:17.523Z,81.65
2019-05-29T03:28:17.531Z,81.85
2019-05-29T03:29:17.540Z,81.96
2019-05-29T03:30:17.490Z,81.44
2019-05-29T03:31:17.473Z,81.07
2019-05-29T03:32:17.503Z,81.58
2019-05-29T03:33:17.517Z,81.89
2019-05-29T03:34:17.466Z,81.75
2019-05-29T03:35:17.436Z,81.96
2019-05-29T03:36:17.426Z,80.72
2019-05-29T03:37:17.416Z,80.72
2019-05-29T03:38:17.394Z,81.13
2019-05-29T03:39:17.420Z,81.23
2019-05-29T03:40:17.381Z,81.54
2019-05-29T03:41:17.372Z,81.96
2019-05-29T03:42:17.354Z,81.65
2019-05-29T03:43:17.352Z,81.54
2019-05-29T03:44:17.371Z,80.96
2019-05-29T03:45:17.354Z,81.13
2019-05-29T03:46:29.755Z,81.03
2019-05-29T03:47:18.306Z,80.96
2019-05-29T03:48:17.292Z,80.86
2019-05-29T03:49:17.309Z,81.23
2019-05-29T03:50:17.303Z,81.17
2019-05-29T03:51:17.265Z,81.07
2019-05-29T03:52:17.280Z,81.48
2019-05-29T03:53:17.232Z,81.27
2019-05-29T03:54:17.287Z,81.48
2019-05-29T03:55:17.218Z,81.44
2019-05-29T03:56:17.207Z,80.82
2019-05-29T03:57:17.196Z,80.62
2019-05-29T03:58:17.191Z,80.72
2019-05-29T03:59:17.208Z,81.44
2019-05-29T04:00:17.171Z,80.82
2019-05-29T04:01:17.150Z,80.93
2019-05-29T04:02:17.138Z,80.93
2019-05-29T04:03:17.129Z,81.13
2019-05-29T04:04:17.141Z,81.23
2019-05-29T04:05:17.110Z,81.03
2019-05-29T04:06:17.115Z,81.23
2019-05-29T04:07:17.084Z,81.13
2019-05-29T04:08:17.171Z,80.72
2019-05-29T04:09:17.120Z,81.44
2019-05-29T04:10:17.081Z,81.75
2019-05-29T04:11:17.175Z,81.65
2019-05-29T04:12:19.123Z,81.54
2019-05-29T04:13:17.043Z,81.65
2019-05-29T04:14:17.057Z,81.75
2019-05-29T04:15:17.026Z,81.44
2019-05-29T04:16:17.015Z,81.51
2019-05-29T04:17:17.028Z,81.71
2019-05-29T04:18:19.514Z,81.92
2019-05-29T04:19:16.982Z,82.02
2019-05-29T04:20:16.971Z,82.09
2019-05-29T04:21:16.947Z,81.47
2019-05-29T04:22:16.930Z,81.77
2019-05-29T04:23:16.913Z,81.84
2019-05-29T04:24:16.931Z,81.57
2019-05-29T04:25:16.890Z,80.61
2019-05-29T04:26:16.906Z,81.12
2019-05-29T04:27:16.891Z,80.61
2019-05-29T04:28:16.893Z,80.71
2019-05-29T04:29:16.873Z,80.36
2019-05-29T04:30:16.857Z,79.71
2019-05-29T04:31:16.833Z,78.44
2019-05-29T04:32:16.833Z,78.03
2019-05-29T04:33:16.830Z,78.03
2019-05-29T04:34:16.844Z,78.13
2019-05-29T04:35:16.787Z,78.75
2019-05-29T04:36:16.842Z,77.96
2019-05-29T04:37:16.816Z,78.17
2019-05-29T04:38:16.768Z,78.99
2019-05-29T04:39:16.783Z,79.30
2019-05-29T04:40:16.747Z,79.33
2019-05-29T04:41:16.745Z,79.71
2019-05-29T04:42:16.713Z,79.95
2019-05-29T04:43:16.750Z,79.81
2019-05-29T04:44:16.738Z,79.40
2019-05-29T04:45:16.679Z,80.02
2019-05-29T04:46:16.672Z,80.33
2019-05-29T04:47:16.655Z,80.02
2019-05-29T04:48:16.659Z,80.22
2019-05-29T04:49:20.191Z,80.74
2019-05-29T04:50:16.632Z,80.63
2019-05-29T04:51:16.614Z,80.49
2019-05-29T04:52:16.599Z,80.74
2019-05-29T04:53:16.621Z,81.05
2019-05-29T04:54:16.603Z,81.46
2019-05-29T04:55:16.581Z,81.25
2019-05-29T04:56:16.557Z,81.87
2019-05-29T04:57:16.545Z,81.83
2019-05-29T04:58:16.539Z,81.35
2019-05-29T04:59:16.551Z,81.83
2019-05-29T05:00:16.518Z,81.73
2019-05-29T05:01:16.510Z,81.21
2019-05-29T05:02:16.498Z,81.01
2019-05-29T05:03:16.491Z,80.39
2019-05-29T05:04:16.488Z,80.35
2019-05-29T05:05:19.534Z,79.84
2019-05-29T05:06:16.446Z,78.81
2019-05-29T05:07:16.459Z,78.40
2019-05-29T05:08:16.486Z,77.99
2019-05-29T05:09:16.447Z,78.78
2019-05-29T05:10:16.403Z,78.81
2019-05-29T05:11:16.404Z,78.50
2019-05-29T05:12:16.380Z,79.43
2019-05-29T05:13:16.389Z,78.92
2019-05-29T05:14:16.393Z,78.92
2019-05-29T05:15:16.350Z,78.30
2019-05-29T05:16:16.339Z,79.29
2019-05-29T05:17:25.779Z,78.20
2019-05-29T05:18:17.313Z,78.88
2019-05-29T05:19:16.997Z,78.78
2019-05-29T05:20:16.333Z,79.19
2019-05-29T05:21:16.312Z,79.29
2019-05-29T05:22:16.279Z,78.88
2019-05-29T05:23:16.260Z,78.88
2019-05-29T05:24:16.246Z,78.85
2019-05-29T05:25:16.296Z,78.74
2019-05-29T05:26:16.230Z,78.85
2019-05-29T05:27:16.217Z,78.64
2019-05-29T05:28:16.204Z,78.64
2019-05-29T05:29:16.192Z,78.23
2019-05-29T05:30:16.196Z,77.47
2019-05-29T05:31:16.168Z,77.88
2019-05-29T05:32:16.153Z,77.81
2019-05-29T05:33:16.150Z,78.09
2019-05-29T05:34:16.134Z,77.98
2019-05-29T05:35:16.153Z,77.88
2019-05-29T05:36:16.122Z,77.58
2019-05-29T05:37:16.097Z,76.96
2019-05-29T05:38:16.136Z,77.47
2019-05-29T05:39:16.103Z,77.47
2019-05-29T05:40:16.095Z,76.96
2019-05-29T05:41:16.058Z,76.51
2019-05-29T05:42:16.056Z,76.82
2019-05-29T05:43:24.074Z,76.62
2019-05-29T05:44:17.020Z,76.10
2019-05-29T05:45:16.063Z,76.92
2019-05-29T05:46:16.002Z,76.41
2019-05-29T05:47:15.997Z,76.37
2019-05-29T05:48:15.983Z,76.89
2019-05-29T05:49:15.976Z,76.37
2019-05-29T05:50:15.984Z,75.66
2019-05-29T05:51:15.950Z,75.31
2019-05-29T05:52:15.993Z,73.27
2019-05-29T05:53:15.955Z,73.68
2019-05-29T05:54:15.937Z,73.78
2019-05-29T05:55:15.946Z,73.44
2019-05-29T05:56:15.899Z,72.31
2019-05-29T05:57:15.904Z,72.11
2019-05-29T05:58:15.903Z,71.69
2019-05-29T05:59:15.891Z,72.07
2019-05-29T06:00:15.902Z,71.66
2019-05-29T06:01:15.838Z,71.97
2019-05-29T06:02:15.853Z,71.42
2019-05-29T06:03:15.849Z,71.62
2019-05-29T06:04:15.844Z,71.12
2019-05-29T06:05:15.831Z,70.20
2019-05-29T06:06:15.788Z,70.71
2019-05-29T06:07:15.819Z,70.78
2019-05-29T06:08:15.764Z,70.47
2019-05-29T06:09:15.765Z,69.65
2019-05-29T06:10:15.759Z,70.26
2019-05-29T06:11:15.746Z,70.47
2019-05-29T06:12:15.718Z,70.78
2019-05-29T06:13:15.708Z,70.98
2019-05-29T06:14:15.697Z,69.82
2019-05-29T06:15:15.691Z,68.39
2019-05-29T06:16:15.695Z,68.90
2019-05-29T06:17:15.667Z,68.80
2019-05-29T06:18:21.569Z,68.36
2019-05-29T06:19:16.639Z,67.47
2019-05-29T06:20:15.642Z,67.47
2019-05-29T06:21:15.650Z,68.36
2019-05-29T06:22:15.615Z,67.24
2019-05-29T06:23:15.608Z,67.13
2019-05-29T06:24:15.589Z,67.75
2019-05-29T06:25:15.589Z,67.24
2019-05-29T06:26:15.595Z,67.21
2019-05-29T06:27:15.562Z,66.90
2019-05-29T06:28:15.558Z,66.80
2019-05-29T06:29:15.565Z,67.00
2019-05-29T06:30:15.518Z,66.90
2019-05-29T06:31:15.564Z,66.18
2019-05-29T06:32:15.537Z,65.88
2019-05-29T06:33:15.520Z,66.18
2019-05-29T06:34:15.498Z,66.97
2019-05-29T06:35:15.462Z,66.05
2019-05-29T06:36:15.516Z,65.74
2019-05-29T06:37:15.493Z,66.77
2019-05-29T06:38:15.431Z,66.97
2019-05-29T06:39:15.427Z,66.86
2019-05-29T06:40:15.426Z,65.51
2019-05-29T06:41:15.458Z,65.10
2019-05-29T06:42:15.420Z,64.31
2019-05-29T06:43:15.402Z,64.59
2019-05-29T06:44:15.371Z,64.59
2019-05-29T06:45:15.394Z,64.69
2019-05-29T06:46:15.415Z,63.47
2019-05-29T06:47:15.370Z,64.59
2019-05-29T06:48:15.345Z,65.41
2019-05-29T06:49:15.332Z,65.51
2019-05-29T06:50:15.306Z,64.66
2019-05-29T06:51:15.332Z,64.25
2019-05-29T06:52:15.296Z,64.36
2019-05-29T06:53:15.265Z,64.97
2019-05-29T06:54:15.259Z,63.75
2019-05-29T06:55:15.277Z,63.13
2019-05-29T06:56:16.412Z,63.34
2019-05-29T06:57:15.220Z,62.82
2019-05-29T06:58:15.226Z,62.11
2019-05-29T06:59:15.209Z,61.80
2019-05-29T07:00:34.020Z,62.62
2019-05-29T07:01:16.226Z,62.52
2019-05-29T07:02:15.174Z,62.62
2019-05-29T07:03:15.158Z,61.80
2019-05-29T07:04:15.149Z,63.10
2019-05-29T07:05:15.131Z,63.71
2019-05-29T07:06:15.168Z,63.31
2019-05-29T07:07:15.137Z,62.70
2019-05-29T07:08:20.813Z,62.90
2019-05-29T07:09:16.088Z,61.85
2019-05-29T07:10:15.096Z,62.16
2019-05-29T07:11:15.176Z,61.65
2019-05-29T07:12:15.090Z,62.23
2019-05-29T07:13:15.072Z,61.85
2019-05-29T07:14:15.058Z,61.00
2019-05-29T07:15:15.035Z,61.21
2019-05-29T07:16:15.066Z,61.00
2019-05-29T07:17:15.026Z,61.24
2019-05-29T07:18:15.009Z,61.44
2019-05-29T07:19:47.432Z,62.16
2019-05-29T07:20:16.004Z,61.34
2019-05-29T07:21:14.998Z,61.65
2019-05-29T07:22:14.949Z,62.05
2019-05-29T07:23:14.941Z,62.54
2019-05-29T07:24:14.927Z,61.11
2019-05-29T07:25:14.923Z,61.31
2019-05-29T07:26:14.969Z,59.81
2019-05-29T07:27:14.966Z,60.39
2019-05-29T07:28:14.916Z,61.11
2019-05-29T07:29:14.905Z,60.22
2019-05-29T07:30:14.890Z,61.61
2019-05-29T07:31:14.865Z,59.99
2019-05-29T07:32:14.869Z,61.52
2019-05-29T07:33:14.880Z,61.21
2019-05-29T07:34:14.823Z,60.60
2019-05-29T07:35:14.838Z,60.70
2019-05-29T07:36:14.858Z,60.09
2019-05-29T07:37:14.866Z,59.89
2019-05-29T07:38:14.836Z,60.60
2019-05-29T07:39:14.801Z,59.38
2019-05-29T07:40:14.815Z,59.17
2019-05-29T07:41:14.766Z,59.07
2019-05-29T07:42:14.762Z,60.39
2019-05-29T07:43:14.770Z,61.38
2019-05-29T07:44:14.741Z,61.82
2019-05-29T07:45:14.745Z,61.90
2019-05-29T07:46:14.722Z,60.47
2019-05-29T07:47:14.718Z,59.25
2019-05-29T07:48:14.675Z,59.53
2019-05-29T07:49:14.672Z,59.63
2019-05-29T07:50:14.654Z,58.81
2019-05-29T07:51:14.642Z,58.51
2019-05-29T07:52:14.650Z,58.48
2019-05-29T07:53:14.651Z,58.89
2019-05-29T07:54:14.608Z,59.39
2019-05-29T07:55:14.624Z,59.19
2019-05-29T07:56:22.481Z,58.58
2019-05-29T07:57:15.602Z,57.56
2019-05-29T07:58:14.565Z,56.85
2019-05-29T07:59:14.565Z,57.36
2019-05-29T08:00:14.546Z,56.14
2019-05-29T08:01:14.543Z,57.46
2019-05-29T08:02:14.548Z,56.55
2019-05-29T08:03:14.517Z,56.34
2019-05-29T08:04:14.508Z,56.34
2019-05-29T08:05:14.517Z,56.85
2019-05-29T08:06:14.509Z,56.55
2019-05-29T08:07:14.514Z,55.94
2019-05-29T08:08:14.461Z,56.04
2019-05-29T08:09:14.449Z,56.04
2019-05-29T08:10:14.436Z,57.06
2019-05-29T08:11:14.454Z,54.82
2019-05-29T08:12:14.443Z,54.41
2019-05-29T08:13:14.403Z,52.98
2019-05-29T08:14:14.397Z,53.80
2019-05-29T08:15:14.390Z,54.24
2019-05-29T08:16:14.393Z,52.50
2019-05-29T08:17:14.412Z,52.98
2019-05-29T08:18:14.357Z,52.20
2019-05-29T08:19:14.340Z,54.44
2019-05-29T08:20:14.326Z,54.03
2019-05-29T08:21:14.329Z,54.61
2019-05-29T08:22:14.337Z,54.31
2019-05-29T08:23:14.292Z,54.00
2019-05-29T08:24:14.291Z,54.21
2019-05-29T08:25:14.265Z,52.45
2019-05-29T08:26:14.287Z,53.50
2019-05-29T08:27:14.288Z,52.89
2019-05-29T08:28:14.247Z,52.45
2019-05-29T08:29:14.228Z,52.35
2019-05-29T08:30:14.222Z,54.39
2019-05-29T08:31:14.205Z,54.18
2019-05-29T08:32:14.190Z,54.28
2019-05-29T08:33:14.212Z,54.28
2019-05-29T08:34:14.192Z,52.76
2019-05-29T08:35:14.173Z,52.15
2019-05-29T08:36:14.166Z,53.88
2019-05-29T08:37:14.138Z,54.39
2019-05-29T08:38:14.145Z,52.76
2019-05-29T08:39:32.957Z,53.47
2019-05-29T08:40:15.111Z,53.88
2019-05-29T08:41:14.101Z,53.67
2019-05-29T08:42:23.641Z,52.96
2019-05-29T08:43:15.086Z,53.06
2019-05-29T08:44:14.083Z,53.57
2019-05-29T08:45:14.054Z,55.00
2019-05-29T08:46:14.054Z,54.08
2019-05-29T08:47:14.028Z,53.78
2019-05-29T08:48:14.041Z,55.18
2019-05-29T08:49:14.009Z,55.58
2019-05-29T08:50:18.647Z,53.45
2019-05-29T08:51:14.984Z,54.05
2019-05-29T08:52:14.008Z,53.14
2019-05-29T08:53:13.983Z,52.43
2019-05-29T08:54:23.534Z,52.33
2019-05-29T08:55:14.954Z,52.00
2019-05-29T08:56:13.925Z,52.33
2019-05-29T08:57:13.917Z,52.94
2019-05-29T08:58:13.937Z,53.85
2019-05-29T08:59:13.891Z,53.14
2019-05-29T09:00:13.884Z,53.55
2019-05-29T09:01:13.873Z,52.40
2019-05-29T09:02:13.885Z,52.81
2019-05-29T09:03:13.874Z,53.42
2019-05-29T09:04:13.858Z,53.72
2019-05-29T09:05:13.847Z,54.21
2019-05-29T09:06:13.895Z,54.21
2019-05-29T09:07:13.806Z,54.00
2019-05-29T09:08:13.812Z,52.89
2019-05-29T09:09:13.780Z,53.19
2019-05-29T09:10:13.776Z,52.25
2019-05-29T09:11:13.756Z,52.66
2019-05-29T09:12:13.759Z,52.08
2019-05-29T09:13:13.773Z,51.16
2019-05-29T09:14:13.723Z,51.46
2019-05-29T09:15:13.916Z,50.45
2019-05-29T09:16:13.696Z,50.56
2019-05-29T09:17:14.599Z,50.65
2019-05-29T09:18:14.987Z,51.18
2019-05-29T09:19:14.146Z,51.06
2019-05-29T09:20:30.614Z,51.16
2019-05-29T09:21:16.282Z,50.65
2019-05-29T09:22:14.853Z,50.65
2019-05-29T09:23:15.034Z,51.06
2019-05-29T09:24:14.714Z,51.98
2019-05-29T09:25:14.235Z,51.57
2019-05-29T09:26:19.173Z,51.16
2019-05-29T09:27:15.408Z,50.65
2019-05-29T09:28:14.652Z,51.04
2019-05-29T09:29:17.747Z,52.05
2019-05-29T09:30:15.494Z,52.56
2019-05-29T09:31:15.567Z,52.25
2019-05-29T09:32:15.078Z,51.72
2019-05-29T09:33:15.238Z,51.62
2019-05-29T09:34:13.710Z,50.71
2019-05-29T09:35:15.532Z,49.90
2019-05-29T09:36:13.973Z,49.77
2019-05-29T09:37:14.160Z,49.90
2019-05-29T09:38:14.051Z,50.20
2019-05-29T09:39:14.975Z,50.40
2019-05-29T09:40:15.387Z,50.51
2019-05-29T09:41:15.648Z,51.21
2019-05-29T09:42:13.416Z,50.40
2019-05-29T09:43:13.417Z,51.19
2019-05-29T09:44:28.118Z,52.71
2019-05-29T09:45:14.972Z,53.52
2019-05-29T09:46:13.407Z,52.11
2019-05-29T09:47:13.360Z,54.13
2019-05-29T09:48:13.365Z,53.72
2019-05-29T09:49:13.342Z,53.52
2019-05-29T09:50:13.335Z,53.42
2019-05-29T09:51:21.270Z,52.92
2019-05-29T09:52:14.298Z,52.89
2019-05-29T09:53:13.293Z,51.80
2019-05-29T09:54:13.371Z,52.39
2019-05-29T09:55:13.279Z,53.42
2019-05-29T09:56:13.306Z,54.11
2019-05-29T09:57:15.461Z,54.31
2019-05-29T09:58:13.262Z,52.18
2019-05-29T09:59:13.223Z,53.19
2019-05-29T10:00:13.214Z,54.21
2019-05-29T10:01:23.126Z,54.00
2019-05-29T10:02:14.185Z,52.59
2019-05-29T10:03:13.179Z,52.79
2019-05-29T10:04:13.187Z,52.18
2019-05-29T10:05:13.167Z,52.69
2019-05-29T10:06:13.169Z,53.30
2019-05-29T10:07:13.168Z,53.40
2019-05-29T10:08:16.728Z,51.88
2019-05-29T10:09:13.115Z,51.67
2019-05-29T10:10:13.107Z,51.78
2019-05-29T10:11:13.100Z,52.39
2019-05-29T10:12:13.127Z,53.09
2019-05-29T10:13:13.067Z,53.80
2019-05-29T10:14:13.065Z,53.30
2019-05-29T10:15:13.055Z,52.46
2019-05-29T10:16:13.033Z,51.14
2019-05-29T10:17:13.446Z,50.54
2019-05-29T10:18:30.609Z,51.65
2019-05-29T10:19:14.045Z,51.45
2019-05-29T10:20:13.035Z,51.25
2019-05-29T10:21:12.981Z,50.84
2019-05-29T10:22:12.988Z,49.83
2019-05-29T10:23:12.953Z,50.43
2019-05-29T10:24:12.947Z,50.54
2019-05-29T10:25:12.935Z,52.36
2019-05-29T10:26:12.922Z,52.76
2019-05-29T10:27:12.957Z,52.33
2019-05-29T10:28:12.904Z,50.92
2019-05-29T10:29:12.990Z,48.90
2019-05-29T10:30:12.908Z,49.62
2019-05-29T10:31:12.875Z,49.83
2019-05-29T10:32:12.900Z,50.94
2019-05-29T10:33:12.858Z,50.84
2019-05-29T10:34:12.855Z,51.32
2019-05-29T10:35:12.824Z,50.21
2019-05-29T10:36:12.834Z,50.31
2019-05-29T10:37:12.826Z,50.82
2019-05-29T10:38:12.794Z,50.51
2019-05-29T10:39:13.131Z,49.70
2019-05-29T10:40:12.773Z,51.02
2019-05-29T10:41:12.761Z,49.40
2019-05-29T10:42:12.774Z,48.28
2019-05-29T10:43:12.738Z,49.07
2019-05-29T10:44:13.178Z,48.57
2019-05-29T10:45:12.722Z,48.06
2019-05-29T10:46:12.706Z,48.46
2019-05-29T10:47:12.731Z,48.57
2019-05-29T10:48:12.710Z,47.66
2019-05-29T10:49:12.695Z,48.36
2019-05-29T10:50:12.682Z,49.38
2019-05-29T10:51:12.684Z,48.36
2019-05-29T10:52:16.668Z,48.67
2019-05-29T10:53:12.636Z,49.68
2019-05-29T10:54:12.617Z,50.67
2019-05-29T10:55:12.622Z,47.55
2019-05-29T10:56:12.596Z,49.05
2019-05-29T10:57:12.615Z,48.26
2019-05-29T10:58:12.583Z,48.97
2019-05-29T10:59:12.567Z,48.03
2019-05-29T11:00:12.547Z,48.14
2019-05-29T11:01:12.562Z,49.15
2019-05-29T11:02:12.549Z,49.35
2019-05-29T11:03:12.524Z,48.44
2019-05-29T11:04:12.551Z,49.96
2019-05-29T11:05:12.523Z,50.67
2019-05-29T11:06:12.520Z,50.87
2019-05-29T11:07:12.534Z,49.63
2019-05-29T11:08:12.488Z,50.64
2019-05-29T11:09:12.493Z,49.84
2019-05-29T11:10:13.621Z,49.22
2019-05-29T11:11:12.453Z,48.72
2019-05-29T11:12:12.481Z,49.43
2019-05-29T11:13:12.406Z,50.54
2019-05-29T11:14:12.421Z,47.81
2019-05-29T11:15:21.313Z,47.71
2019-05-29T11:16:13.401Z,48.22
2019-05-29T11:17:12.399Z,47.81
2019-05-29T11:18:12.352Z,47.31
2019-05-29T11:19:12.343Z,46.78
2019-05-29T11:20:12.350Z,46.28
2019-05-29T11:21:12.327Z,46.28
2019-05-29T11:22:25.731Z,47.79
2019-05-29T11:23:13.297Z,47.19
2019-05-29T11:24:12.287Z,46.17
2019-05-29T11:25:22.521Z,46.37
2019-05-29T11:26:13.280Z,44.46
2019-05-29T11:27:12.286Z,46.15
2019-05-29T11:28:12.256Z,43.75
2019-05-29T11:29:12.241Z,43.83
2019-05-29T11:30:12.227Z,42.54
2019-05-29T11:31:12.211Z,42.33
2019-05-29T11:32:12.273Z,42.76
2019-05-29T11:33:12.185Z,44.17
2019-05-29T11:34:12.188Z,44.78
2019-05-29T11:35:12.169Z,43.97
2019-05-29T11:36:13.674Z,43.87
2019-05-29T11:37:12.173Z,44.78
2019-05-29T11:38:12.150Z,46.40
2019-05-29T11:39:12.135Z,45.77
2019-05-29T11:40:12.114Z,46.20
2019-05-29T11:41:25.760Z,44.37
2019-05-29T11:42:26.423Z,45.67
2019-05-29T11:43:13.081Z,44.78
2019-05-29T11:44:12.070Z,46.48
2019-05-29T11:45:12.075Z,45.97
2019-05-29T11:46:12.050Z,47.16
2019-05-29T11:47:12.073Z,43.75
2019-05-29T11:48:12.028Z,43.34
2019-05-29T11:49:12.021Z,43.55
2019-05-29T11:50:19.228Z,42.43
2019-05-29T11:51:12.992Z,43.24
2019-05-29T11:52:23.330Z,44.66
2019-05-29T11:53:12.964Z,44.46
2019-05-29T11:54:11.965Z,43.75
2019-05-29T11:55:11.983Z,43.65
2019-05-29T11:56:11.961Z,43.55
2019-05-29T11:57:11.950Z,43.55
2019-05-29T11:58:28.095Z,43.85
2019-05-29T11:59:12.903Z,44.35
2019-05-29T12:00:19.391Z,43.85
2019-05-29T12:01:12.884Z,44.25
2019-05-29T12:02:11.902Z,44.56
2019-05-29T12:03:11.860Z,45.06
2019-05-29T12:04:25.914Z,43.93
2019-05-29T12:05:12.844Z,44.35
2019-05-29T12:06:11.822Z,44.56
2019-05-29T12:07:11.812Z,43.93
2019-05-29T12:08:11.846Z,43.73
2019-05-29T12:09:11.792Z,43.43
2019-05-29T12:10:11.839Z,43.63
2019-05-29T12:11:11.769Z,44.13
2019-05-29T12:12:11.762Z,44.43
2019-05-29T12:13:11.783Z,44.42
2019-05-29T12:14:11.747Z,43.93
2019-05-29T12:15:15.594Z,43.73
2019-05-29T12:16:12.732Z,44.51
2019-05-29T12:17:11.709Z,44.82
2019-05-29T12:18:23.385Z,43.51
2019-05-29T12:19:12.697Z,44.31
2019-05-29T12:20:27.122Z,44.92
2019-05-29T12:21:12.663Z,43.80
2019-05-29T12:22:11.675Z,42.40
2019-05-29T12:23:25.091Z,43.30
2019-05-29T12:24:12.662Z,44.23
2019-05-29T12:25:11.643Z,43.71
2019-05-29T12:26:21.865Z,43.60
2019-05-29T12:27:12.618Z,43.63
2019-05-29T12:28:11.642Z,43.60
2019-05-29T12:29:12.100Z,44.84
2019-05-29T12:30:11.571Z,44.74
2019-05-29T12:31:11.556Z,44.23
2019-05-29T12:32:12.416Z,44.31
2019-05-29T12:33:11.583Z,45.62
2019-05-29T12:34:18.679Z,45.62
2019-05-29T12:35:12.507Z,44.71
2019-05-29T12:36:11.500Z,44.42
2019-05-29T12:37:11.506Z,44.82
2019-05-29T12:38:11.503Z,44.71
2019-05-29T12:39:11.493Z,43.80
2019-05-29T12:40:11.465Z,43.60
2019-05-29T12:41:11.468Z,44.42
2019-05-29T12:42:11.446Z,44.11
2019-05-29T12:43:25.998Z,44.71
2019-05-29T12:44:12.430Z,44.42
2019-05-29T12:45:11.454Z,44.01
2019-05-29T12:46:11.387Z,43.71
2019-05-29T12:47:11.379Z,44.31
2019-05-29T12:48:14.157Z,43.91
2019-05-29T12:49:11.389Z,44.01
2019-05-29T12:50:11.379Z,43.80
2019-05-29T12:51:11.387Z,44.19
2019-05-29T12:52:11.337Z,43.80
2019-05-29T12:53:28.279Z,44.59
2019-05-29T12:54:12.328Z,44.19